Time;durP1;ratioP1;P1;durP2;ratioP2;P2;SDS_P1;SDS_P2;PMS_P1;PMS_P2;Temp;Humidity;BMP_temperature;BMP_pressure;BME280_temperature;BME280_humidity;BME280_pressure;Samples;Min_cycle;Max_cycle;Signal;HPM_P1;HPM_P2
2022/10/17 00:00:15;;;;;;;5.45;4.15;;;14.70;83.00;;;;;;9173739;19;20378;-61
2022/10/17 00:03:19;;;;;;;6.15;3.58;;;14.70;83.00;;;;;;9171962;19;20367;-62
2022/10/17 00:06:22;;;;;;;8.45;4.18;;;14.70;83.00;;;;;;9169128;19;20014;-63
2022/10/17 00:09:26;;;;;;;7.10;4.05;;;14.60;83.00;;;;;;9170783;19;20037;-62
2022/10/17 00:12:30;;;;;;;6.72;3.97;;;14.60;83.00;;;;;;9172292;19;20475;-63
2022/10/17 00:15:35;;;;;;;9.30;4.40;;;14.60;83.00;;;;;;9171465;19;20015;-64
2022/10/17 00:18:39;;;;;;;5.25;4.00;;;14.60;83.10;;;;;;9172574;19;20086;-61
2022/10/17 00:21:42;;;;;;;6.35;4.20;;;14.60;83.10;;;;;;9162115;19;20098;-65
2022/10/17 00:24:46;;;;;;;6.70;4.35;;;14.60;83.10;;;;;;9173755;19;20019;-62
2022/10/17 00:27:50;;;;;;;12.18;4.93;;;14.60;83.10;;;;;;9172441;19;20344;-61
2022/10/17 00:30:59;;;;;;;7.65;4.45;;;14.50;83.10;;;;;;9173459;19;20060;-64
2022/10/17 00:34:02;;;;;;;8.27;5.00;;;14.60;83.30;;;;;;9172580;19;20045;-61
2022/10/17 00:37:06;;;;;;;9.80;4.55;;;14.50;83.30;;;;;;9174646;19;20090;-63
2022/10/17 00:40:11;;;;;;;8.20;4.38;;;14.50;83.30;;;;;;9173555;19;20448;-65
2022/10/17 00:43:18;;;;;;;7.30;4.97;;;14.50;83.40;;;;;;9173945;19;20078;-61
2022/10/17 00:46:25;;;;;;;8.68;5.70;;;14.50;83.40;;;;;;9171573;19;20026;-62
2022/10/17 00:49:33;;;;;;;10.43;5.40;;;14.50;83.40;;;;;;9167476;19;20089;-62
2022/10/17 00:52:37;;;;;;;8.13;5.65;;;14.50;83.40;;;;;;9174530;19;20026;-60
2022/10/17 00:55:49;;;;;;;12.10;5.90;;;14.40;83.40;;;;;;9172770;19;20168;-65
2022/10/17 00:58:53;;;;;;;9.00;5.25;;;14.40;83.50;;;;;;9170074;19;20086;-62
2022/10/17 01:02:01;;;;;;;;;;;14.40;83.50;;;;;;9173025;19;20017;-62
2022/10/17 01:05:06;;;;;;;9.13;5.50;;;14.40;83.50;;;;;;9172385;19;20004;-62
2022/10/17 01:08:12;;;;;;;8.38;5.95;;;14.40;83.40;;;;;;9172315;19;20023;-66
2022/10/17 01:11:29;;;;;;;11.55;5.47;;;14.40;83.50;;;;;;9173692;19;20022;-63
2022/10/17 01:14:42;;;;;;;9.50;6.25;;;14.40;83.70;;;;;;9172889;19;20809;-63
2022/10/17 01:18:01;;;;;;;9.13;5.45;;;14.40;83.70;;;;;;9170502;19;20052;-63
2022/10/17 01:21:31;;;;;;;8.93;5.55;;;14.30;83.80;;;;;;9166911;19;20026;-62
2022/10/17 01:24:56;;;;;;;9.65;5.53;;;14.30;83.80;;;;;;9170326;19;20019;-61
2022/10/17 01:28:18;;;;;;;7.78;6.10;;;14.30;83.90;;;;;;9170890;19;20492;-66
2022/10/17 01:31:29;;;;;;;9.10;5.88;;;14.30;83.90;;;;;;9170466;19;20021;-61
2022/10/17 01:34:36;;;;;;;8.60;5.85;;;14.30;83.80;;;;;;9171487;19;20022;-64
2022/10/17 01:37:47;;;;;;;10.40;7.05;;;14.30;83.90;;;;;;9169419;19;20015;-63
2022/10/17 01:40:57;;;;;;;13.07;6.88;;;14.30;84.00;;;;;;9171321;19;20025;-66
2022/10/17 01:44:05;;;;;;;8.57;5.95;;;14.30;84.00;;;;;;9166095;19;20030;-66
2022/10/17 01:47:16;;;;;;;10.68;6.75;;;14.30;84.10;;;;;;9167822;19;20015;-62
2022/10/17 01:50:24;;;;;;;8.15;6.30;;;14.30;84.10;;;;;;9167986;19;20015;-61
2022/10/17 01:53:34;;;;;;;9.15;6.20;;;14.30;84.10;;;;;;9168820;19;20023;-64
2022/10/17 01:56:40;;;;;;;9.32;6.93;;;14.30;84.20;;;;;;9170113;19;20085;-62
2022/10/17 01:59:49;;;;;;;8.20;6.38;;;14.30;84.20;;;;;;9170514;19;20730;-62
2022/10/17 02:02:59;;;;;;;9.25;6.57;;;14.30;84.20;;;;;;9168489;19;20018;-65
2022/10/17 02:06:03;;;;;;;11.13;7.30;;;14.30;84.30;;;;;;9168283;19;20638;-62
2022/10/17 02:09:22;;;;;;;16.75;8.90;;;14.30;84.30;;;;;;9170408;19;20010;-64
2022/10/17 02:12:43;;;;;;;12.45;7.25;;;14.30;84.40;;;;;;9171639;19;20037;-64
2022/10/17 02:16:07;;;;;;;10.07;7.28;;;14.30;84.40;;;;;;9168487;19;20018;-64
2022/10/17 02:19:37;;;;;;;10.32;7.65;;;14.30;84.50;;;;;;9166364;19;20023;-63
2022/10/17 02:22:48;;;;;;;10.82;6.82;;;14.30;84.50;;;;;;9163584;19;20101;-65
2022/10/17 02:25:58;;;;;;;12.45;7.00;;;14.30;84.40;;;;;;9170554;19;20487;-63
2022/10/17 02:29:08;;;;;;;10.35;7.25;;;14.30;84.50;;;;;;9164285;19;20022;-63
2022/10/17 02:32:16;;;;;;;10.93;7.10;;;14.30;84.50;;;;;;9167124;19;20089;-62
2022/10/17 02:35:23;;;;;;;11.38;7.20;;;14.30;84.60;;;;;;9167971;19;20033;-63
2022/10/17 02:38:28;;;;;;;12.70;7.75;;;14.30;84.60;;;;;;9170612;19;20053;-63
2022/10/17 02:41:33;;;;;;;15.20;7.65;;;14.30;84.60;;;;;;9168576;19;20026;-61
2022/10/17 02:44:41;;;;;;;11.77;7.68;;;14.30;84.60;;;;;;9167151;19;20031;-63
2022/10/17 02:47:52;;;;;;;9.27;7.57;;;14.30;84.70;;;;;;9170768;19;20468;-62
2022/10/17 02:51:04;;;;;;;12.45;8.45;;;14.30;84.80;;;;;;9166785;19;20026;-62
2022/10/17 02:54:14;;;;;;;14.63;8.13;;;14.30;84.80;;;;;;9165954;19;20026;-64
2022/10/17 02:57:23;;;;;;;11.85;8.38;;;14.30;84.80;;;;;;9166361;19;20022;-64
2022/10/17 03:00:27;;;;;;;15.63;8.27;;;14.30;84.80;;;;;;9168363;19;20021;-64
2022/10/17 03:03:33;;;;;;;13.63;8.35;;;14.30;84.90;;;;;;9165593;19;20018;-63
2022/10/17 03:06:40;;;;;;;11.20;7.57;;;14.30;84.90;;;;;;9166981;19;20385;-62
2022/10/17 03:09:44;;;;;;;9.10;6.68;;;14.30;84.90;;;;;;9164460;19;20030;-62
2022/10/17 03:12:48;;;;;;;;;;;14.30;85.00;;;;;;9168376;19;20023;-62
2022/10/17 03:15:52;;;;;;;9.02;7.00;;;14.30;84.90;;;;;;9166511;19;19937;-63
2022/10/17 03:18:55;;;;;;;16.40;7.93;;;14.30;84.80;;;;;;9165024;19;20014;-62
2022/10/17 03:22:01;;;;;;;12.60;8.20;;;14.30;84.90;;;;;;9168297;19;20878;-64
2022/10/17 03:25:07;;;;;;;10.38;7.82;;;14.30;85.00;;;;;;9169800;19;20019;-62
2022/10/17 03:28:13;;;;;;;13.05;7.97;;;14.30;85.10;;;;;;9172557;19;20014;-63
2022/10/17 03:31:18;;;;;;;16.25;9.00;;;14.30;85.20;;;;;;9173076;19;20019;-63
2022/10/17 03:34:23;;;;;;;10.30;7.43;;;14.30;85.20;;;;;;9175314;19;20026;-63
2022/10/17 03:37:29;;;;;;;16.33;7.80;;;14.30;85.30;;;;;;9172639;19;20025;-65
2022/10/17 03:40:33;;;;;;;11.05;7.65;;;14.30;85.30;;;;;;9172334;19;20015;-62
2022/10/17 03:43:37;;;;;;;;;;;14.30;85.30;;;;;;9174321;19;20406;-65
2022/10/17 03:46:40;;;;;;;12.93;7.43;;;14.40;85.30;;;;;;9174787;19;19926;-65
2022/10/17 03:49:44;;;;;;;12.05;7.90;;;14.30;85.40;;;;;;9172838;19;20048;-62
2022/10/17 03:52:50;;;;;;;9.85;7.32;;;14.40;85.30;;;;;;9172950;19;20052;-64
2022/10/17 03:55:54;;;;;;;11.88;7.68;;;14.40;85.40;;;;;;9172546;19;20021;-63
2022/10/17 03:58:59;;;;;;;12.25;7.82;;;14.40;85.40;;;;;;9172984;19;20022;-63
2022/10/17 04:02:04;;;;;;;12.60;8.27;;;14.40;85.40;;;;;;9172672;19;20021;-63
2022/10/17 04:05:09;;;;;;;12.00;7.65;;;14.30;85.40;;;;;;9173169;19;20085;-63
2022/10/17 04:08:14;;;;;;;12.93;7.97;;;14.40;85.60;;;;;;9171596;19;20100;-64
2022/10/17 04:11:47;;;;;;;;;;;14.40;85.60;;;;;;9174862;19;20022;-61
2022/10/17 04:14:51;;;;;;;13.65;8.82;;;14.40;85.50;;;;;;9172164;19;19919;-61
2022/10/17 04:17:54;;;;;;;11.35;7.72;;;14.40;85.40;;;;;;9172243;19;20468;-63
2022/10/17 04:20:58;;;;;;;12.82;7.68;;;14.40;85.50;;;;;;9167509;19;20014;-62
2022/10/17 04:24:04;;;;;;;15.10;7.88;;;14.40;85.50;;;;;;9173422;19;20822;-65
2022/10/17 04:27:34;;;;;;;13.70;9.07;;;14.40;85.70;;;;;;9173401;19;20015;-63
2022/10/17 04:30:39;;;;;;;11.07;7.93;;;14.40;85.70;;;;;;9172588;19;20135;-62
2022/10/17 04:33:49;;;;;;;17.15;9.10;;;14.40;85.80;;;;;;9168405;19;20081;-63
2022/10/17 04:36:53;;;;;;;14.60;9.05;;;14.40;85.90;;;;;;9173923;19;20033;-62
2022/10/17 04:39:59;;;;;;;13.88;9.02;;;14.40;86.00;;;;;;9173165;19;20490;-67
2022/10/17 04:43:06;;;;;;;17.05;9.18;;;14.50;86.20;;;;;;9175248;19;20078;-64
2022/10/17 04:46:15;;;;;;;16.88;9.48;;;14.50;86.20;;;;;;9170643;19;20023;-62
2022/10/17 04:49:20;;;;;;;15.63;9.27;;;14.50;86.30;;;;;;9172195;19;20024;-63
2022/10/17 04:52:28;;;;;;;12.52;9.07;;;14.50;86.30;;;;;;9172911;19;20022;-62
2022/10/17 04:55:39;;;;;;;13.90;8.30;;;14.60;86.40;;;;;;9175258;19;20010;-61
2022/10/17 04:58:44;;;;;;;15.88;9.15;;;14.60;86.50;;;;;;9178734;19;20023;-62
2022/10/17 05:01:50;;;;;;;18.63;8.38;;;14.60;86.40;;;;;;9179491;19;20060;-63
2022/10/17 05:04:54;;;;;;;16.25;8.88;;;14.60;86.50;;;;;;9177660;19;20085;-63
2022/10/17 05:07:58;;;;;;;;;;;14.60;86.50;;;;;;9177459;19;20026;-63
2022/10/17 05:11:17;;;;;;;11.43;8.10;;;14.70;86.50;;;;;;9175752;19;19922;-60
2022/10/17 05:14:21;;;;;;;14.07;9.20;;;14.70;86.50;;;;;;9178646;19;20451;-62
2022/10/17 05:17:25;;;;;;;;;;;14.70;86.50;;;;;;9179302;19;20063;-63
2022/10/17 05:20:28;;;;;;;11.35;7.88;;;14.70;86.50;;;;;;9176451;19;19921;-62
2022/10/17 05:23:32;;;;;;;11.45;8.07;;;14.70;86.30;;;;;;9178384;19;20018;-63
2022/10/17 05:26:38;;;;;;;20.35;8.98;;;14.70;86.50;;;;;;9178693;19;20026;-63
2022/10/17 05:29:42;;;;;;;12.38;7.78;;;14.80;86.60;;;;;;9176874;19;20463;-62
2022/10/17 05:32:55;;;;;;;15.20;8.00;;;14.80;86.70;;;;;;9178802;19;20065;-62
2022/10/17 05:35:59;;;;;;;17.42;9.48;;;14.80;86.70;;;;;;9178352;19;20556;-62
2022/10/17 05:39:03;;;;;;;18.17;9.18;;;14.80;86.80;;;;;;9180016;19;20018;-63
2022/10/17 05:42:10;;;;;;;16.77;8.95;;;14.80;86.80;;;;;;9178595;19;20467;-63
2022/10/17 05:45:14;;;;;;;16.52;8.85;;;14.90;86.90;;;;;;9176034;19;20460;-61
2022/10/17 05:48:18;;;;;;;14.35;8.70;;;14.90;86.90;;;;;;9171489;19;20022;-63
2022/10/17 05:51:22;;;;;;;15.52;8.85;;;14.90;87.10;;;;;;9175549;19;20586;-63
2022/10/17 05:54:26;;;;;;;15.45;8.50;;;15.00;87.10;;;;;;9178170;19;20578;-63
2022/10/17 05:57:32;;;;;;;14.93;8.13;;;15.00;87.10;;;;;;9176505;19;20019;-63
2022/10/17 06:00:36;;;;;;;13.27;7.43;;;15.00;87.20;;;;;;9176766;19;20018;-63
2022/10/17 06:03:41;;;;;;;15.93;8.45;;;15.00;87.20;;;;;;9173025;19;20015;-64
2022/10/17 06:06:46;;;;;;;15.35;8.68;;;15.00;87.20;;;;;;9170789;19;20520;-63
2022/10/17 06:09:50;;;;;;;15.80;8.95;;;15.10;87.30;;;;;;9172305;19;20029;-63
2022/10/17 06:12:55;;;;;;;;;;;15.10;87.40;;;;;;9176961;19;20047;-62
2022/10/17 06:15:59;;;;;;;13.75;8.27;;;15.10;87.30;;;;;;9167272;19;19930;-63
2022/10/17 06:19:02;;;;;;;15.52;8.57;;;15.10;87.10;;;;;;9167488;19;20022;-62
2022/10/17 06:22:07;;;;;;;14.57;8.20;;;15.20;87.30;;;;;;9165107;19;20022;-63
2022/10/17 06:25:12;;;;;;;17.92;9.07;;;15.20;87.40;;;;;;9169799;19;20015;-64
2022/10/17 06:28:17;;;;;;;;;;;15.20;87.60;;;;;;9165065;19;20021;-63
2022/10/17 06:31:22;;;;;;;17.58;8.05;;;15.30;87.60;;;;;;9157840;19;19936;-64
2022/10/17 06:34:26;;;;;;;17.65;8.63;;;15.30;87.40;;;;;;9163514;19;20707;-63
2022/10/17 06:37:32;;;;;;;13.20;7.53;;;15.30;87.60;;;;;;9166831;19;20015;-63
2022/10/17 06:40:42;;;;;;;12.73;8.38;;;15.40;87.70;;;;;;9161215;19;20021;-64
2022/10/17 06:43:48;;;;;;;14.93;8.48;;;15.40;87.80;;;;;;9162257;19;20089;-63
2022/10/17 06:47:22;;;;;;;22.52;9.10;;;15.50;88.00;;;;;;9166541;19;20022;-64
2022/10/17 06:50:28;;;;;;;13.90;8.02;;;15.50;88.00;;;;;;9161435;19;20039;-63
2022/10/17 06:53:54;;;;;;;14.65;8.27;;;15.60;88.10;;;;;;9165744;19;20031;-61
2022/10/17 06:57:05;;;;;;;15.20;8.40;;;15.60;88.10;;;;;;9178922;19;20387;-64
2022/10/17 07:00:33;;;;;;;12.90;8.63;;;15.70;88.30;;;;;;9181088;19;20014;-60
2022/10/17 07:03:39;;;;;;;14.90;8.07;;;15.80;88.30;;;;;;9181327;19;20035;-64
2022/10/17 07:06:42;;;;;;;13.48;7.85;;;15.80;88.30;;;;;;9180813;19;20018;-63
2022/10/17 07:09:52;;;;;;;15.32;7.97;;;15.80;88.30;;;;;;9178877;19;20014;-61
2022/10/17 07:12:57;;;;;;;12.48;7.00;;;15.90;88.40;;;;;;9181446;19;20014;-63
2022/10/17 07:16:02;;;;;;;11.70;7.10;;;16.00;88.50;;;;;;9183814;19;20018;-61
2022/10/17 07:19:08;;;;;;;13.70;8.30;;;16.00;88.50;;;;;;9183452;19;20015;-62
2022/10/17 07:22:14;;;;;;;25.33;7.68;;;16.10;88.60;;;;;;9178004;19;20388;-62
2022/10/17 07:25:23;;;;;;;11.10;7.35;;;16.10;88.60;;;;;;9182603;19;20025;-62
2022/10/17 07:28:35;;;;;;;14.05;7.45;;;16.20;88.70;;;;;;9181321;19;20007;-64
2022/10/17 07:31:50;;;;;;;18.80;8.60;;;16.20;88.70;;;;;;9182085;19;20014;-63
2022/10/17 07:34:54;;;;;;;11.90;7.25;;;16.30;88.80;;;;;;9182148;19;20027;-63
2022/10/17 07:37:58;;;;;;;14.88;7.38;;;16.30;88.80;;;;;;9183716;19;20022;-62
2022/10/17 07:41:06;;;;;;;12.18;6.78;;;16.40;88.80;;;;;;9183804;19;20014;-66
2022/10/17 07:44:10;;;;;;;12.52;6.53;;;16.50;88.90;;;;;;9181828;19;20011;-62
2022/10/17 07:47:22;;;;;;;13.82;7.05;;;16.60;88.90;;;;;;9181459;19;20022;-61
2022/10/17 07:50:28;;;;;;;24.85;7.22;;;16.60;88.90;;;;;;9180246;19;20129;-63
2022/10/17 07:53:31;;;;;;;9.60;6.38;;;16.70;89.00;;;;;;9183028;19;20483;-63
2022/10/17 07:56:35;;;;;;;10.15;6.70;;;16.80;89.60;;;;;;9180524;19;20480;-62
2022/10/17 07:59:39;;;;;;;15.68;6.32;;;16.90;89.00;;;;;;9182842;19;20078;-61
2022/10/17 08:02:45;;;;;;;14.52;6.45;;;17.00;89.00;;;;;;9177823;19;20027;-62
2022/10/17 08:05:48;;;;;;;14.82;6.30;;;17.00;89.00;;;;;;9169785;19;20018;-64
2022/10/17 08:08:52;;;;;;;11.77;6.85;;;17.10;89.00;;;;;;9178361;19;20054;-62
2022/10/17 08:11:56;;;;;;;10.15;6.05;;;17.20;89.00;;;;;;9176829;19;20026;-61
2022/10/17 08:14:59;;;;;;;17.85;5.85;;;17.30;89.00;;;;;;9177636;19;20348;-65
2022/10/17 08:18:05;;;;;;;14.57;6.85;;;17.40;89.00;;;;;;9169151;19;20383;-68
2022/10/17 08:21:10;;;;;;;9.88;6.38;;;17.50;89.10;;;;;;9170096;19;20084;-62
2022/10/17 08:24:13;;;;;;;12.48;5.90;;;17.50;89.00;;;;;;9171833;19;20476;-69
2022/10/17 08:27:22;;;;;;;16.50;7.03;;;17.70;89.00;;;;;;9176446;19;20015;-69
2022/10/17 08:30:29;;;;;;;9.43;6.13;;;17.80;89.10;;;;;;9173417;19;20019;-65
2022/10/17 08:33:35;;;;;;;8.73;5.55;;;17.90;89.00;;;;;;9174067;19;20098;-67
2022/10/17 08:36:39;;;;;;;11.43;6.32;;;17.90;88.90;;;;;;9176526;19;20586;-67
2022/10/17 08:39:43;;;;;;;10.90;6.15;;;18.00;88.80;;;;;;9175261;19;20122;-66
2022/10/17 08:43:08;;;;;;;10.38;5.22;;;18.10;88.70;;;;;;9175754;19;20082;-65
2022/10/17 08:46:12;;;;;;;12.05;5.13;;;18.10;88.60;;;;;;9181226;19;20019;-66
2022/10/17 08:49:32;;;;;;;14.13;4.90;;;18.30;88.50;;;;;;9179155;19;20006;-66
2022/10/17 08:52:41;;;;;;;15.32;5.60;;;18.30;88.50;;;;;;9179474;19;20017;-66
2022/10/17 08:55:47;;;;;;;11.73;5.05;;;18.40;88.30;;;;;;9181162;19;20010;-66
2022/10/17 08:58:51;;;;;;;12.82;5.05;;;18.40;88.20;;;;;;9180527;19;20021;-68
2022/10/17 09:02:03;;;;;;;10.63;4.78;;;18.40;88.10;;;;;;9180856;19;20101;-68
2022/10/17 09:05:31;;;;;;;10.68;4.97;;;18.40;88.00;;;;;;9178018;19;20026;-67
2022/10/17 09:08:45;;;;;;;12.90;5.15;;;18.50;88.00;;;;;;9181407;19;20096;-68
2022/10/17 09:12:03;;;;;;;13.67;5.20;;;18.50;87.90;;;;;;9176410;19;20479;-68
2022/10/17 09:15:39;;;;;;;12.20;5.35;;;18.50;87.90;;;;;;9179157;19;20018;-68
2022/10/17 09:18:46;;;;;;;11.95;4.50;;;18.50;87.90;;;;;;9179084;19;20030;-68
2022/10/17 09:21:54;;;;;;;11.82;5.32;;;18.50;87.70;;;;;;9175547;19;20014;-67
2022/10/17 09:25:02;;;;;;;17.02;4.95;;;18.60;87.70;;;;;;9180211;19;20007;-67
2022/10/17 09:28:16;;;;;;;12.57;5.00;;;18.60;87.70;;;;;;9175905;19;20019;-67
2022/10/17 09:31:23;;;;;;;14.05;5.15;;;18.60;87.70;;;;;;9174188;19;20019;-67
2022/10/17 09:34:29;;;;;;;10.95;5.35;;;18.60;87.70;;;;;;9177865;19;20038;-67
2022/10/17 09:37:34;;;;;;;10.30;5.38;;;18.60;87.70;;;;;;9177248;19;20018;-69
2022/10/17 09:40:38;;;;;;;11.25;5.00;;;18.60;87.60;;;;;;9177118;19;20046;-69
2022/10/17 09:43:42;;;;;;;12.13;5.32;;;18.70;87.70;;;;;;9177833;19;20022;-67
2022/10/17 09:46:57;;;;;;;15.25;5.97;;;18.70;87.70;;;;;;9174908;19;20131;-68
2022/10/17 09:50:02;;;;;;;13.80;5.70;;;18.70;87.60;;;;;;9176334;19;20015;-68
2022/10/17 09:53:14;;;;;;;9.73;5.40;;;18.70;87.60;;;;;;9176116;19;20049;-68
2022/10/17 09:56:20;;;;;;;9.02;4.10;;;18.70;87.60;;;;;;9175466;19;20014;-68
2022/10/17 09:59:32;;;;;;;8.23;4.70;;;18.60;87.50;;;;;;9176587;19;20132;-68
2022/10/17 10:02:39;;;;;;;9.65;5.22;;;18.60;87.60;;;;;;9176835;19;20092;-68
2022/10/17 10:05:58;;;;;;;7.15;4.53;;;18.60;87.60;;;;;;9173884;19;20078;-67
2022/10/17 10:09:06;;;;;;;8.07;4.72;;;18.60;87.60;;;;;;9177479;19;20010;-67
2022/10/17 10:12:20;;;;;;;8.45;4.90;;;18.60;87.80;;;;;;9177485;19;20019;-67
2022/10/17 10:15:40;;;;;;;9.98;4.55;;;18.60;87.80;;;;;;9178207;19;20010;-67
2022/10/17 10:18:44;;;;;;;11.38;4.90;;;18.60;87.80;;;;;;9177681;19;20018;-67
2022/10/17 10:21:57;;;;;;;12.80;4.85;;;18.60;87.70;;;;;;9173583;19;20025;-67
2022/10/17 10:25:17;;;;;;;9.15;5.05;;;18.60;87.80;;;;;;9174812;19;20027;-68
2022/10/17 10:28:24;;;;;;;6.50;4.57;;;18.60;87.80;;;;;;9171993;19;20014;-67
2022/10/17 10:31:32;;;;;;;8.15;5.03;;;18.60;87.80;;;;;;9168802;19;20569;-67
2022/10/17 10:34:38;;;;;;;8.70;4.70;;;18.50;87.80;;;;;;9163744;19;20483;-67
2022/10/17 10:37:44;;;;;;;10.82;5.55;;;18.50;87.90;;;;;;9166517;19;20493;-68
2022/10/17 10:40:52;;;;;;;13.07;4.28;;;18.50;87.90;;;;;;9166716;19;20519;-68
2022/10/17 10:43:57;;;;;;;11.90;7.28;;;18.50;87.90;;;;;;9160755;19;20488;-68
2022/10/17 10:47:16;;;;;;;8.43;5.82;;;18.40;87.90;;;;;;9158276;19;20056;-67
2022/10/17 10:50:27;;;;;;;10.02;5.45;;;18.40;88.00;;;;;;9157996;19;20023;-68
2022/10/17 10:53:39;;;;;;;13.30;5.32;;;18.40;88.00;;;;;;9162287;19;20018;-67
2022/10/17 10:56:47;;;;;;;8.05;4.10;;;18.40;88.00;;;;;;9163377;19;20038;-69
2022/10/17 11:00:01;;;;;;;9.20;4.50;;;18.40;88.10;;;;;;9165842;19;20653;-68
2022/10/17 11:03:12;;;;;;;13.70;9.25;;;18.40;88.00;;;;;;9167616;19;20046;-68
2022/10/17 11:06:23;;;;;;;12.10;5.15;;;18.40;88.20;;;;;;9162553;19;20048;-68
2022/10/17 11:09:37;;;;;;;11.25;4.80;;;18.40;88.10;;;;;;9169391;19;20086;-68
2022/10/17 11:12:46;;;;;;;11.02;5.10;;;18.30;88.10;;;;;;9170642;19;20014;-69
2022/10/17 11:15:58;;;;;;;11.55;5.22;;;18.30;88.10;;;;;;9169015;19;20029;-68
2022/10/17 11:19:12;;;;;;;9.13;5.25;;;18.30;88.20;;;;;;9169626;19;20479;-68
2022/10/17 11:22:17;;;;;;;8.13;4.70;;;18.30;88.20;;;;;;9165442;19;20022;-67
2022/10/17 11:25:32;;;;;;;8.65;5.45;;;18.30;88.20;;;;;;9173335;19;20074;-67
2022/10/17 11:28:38;;;;;;;7.30;5.13;;;18.30;88.40;;;;;;9172787;19;20082;-68
2022/10/17 11:31:46;;;;;;;7.88;5.20;;;18.30;88.30;;;;;;9172255;19;20015;-67
2022/10/17 11:34:54;;;;;;;7.43;4.70;;;18.20;88.40;;;;;;9175059;19;20498;-68
2022/10/17 11:38:08;;;;;;;7.22;5.13;;;18.20;88.40;;;;;;9173794;19;20413;-67
2022/10/17 11:41:14;;;;;;;;;;;18.20;88.50;;;;;;9170523;19;20039;-67
2022/10/17 11:44:26;;;;;;;9.45;4.93;;;18.20;88.40;;;;;;9180798;19;19974;-68
2022/10/17 11:47:38;;;;;;;7.95;5.55;;;18.20;88.40;;;;;;9181134;19;20052;-68
2022/10/17 11:50:47;;;;;;;9.48;5.10;;;18.20;88.50;;;;;;9180977;19;20013;-67
2022/10/17 11:54:15;;;;;;;16.75;6.60;;;18.20;88.60;;;;;;9181212;19;20495;-68
2022/10/17 11:57:36;;;;;;;9.38;5.75;;;18.20;88.60;;;;;;9182308;19;20074;-68
2022/10/17 12:00:53;;;;;;;9.18;5.75;;;18.20;88.80;;;;;;9182476;19;20110;-68
2022/10/17 12:04:19;;;;;;;9.30;5.70;;;18.20;88.80;;;;;;9181127;19;20039;-69
2022/10/17 12:07:30;;;;;;;7.55;5.90;;;18.20;88.90;;;;;;9180588;19;20014;-68
2022/10/17 12:10:43;;;;;;;8.90;5.63;;;18.20;88.90;;;;;;9177767;19;20019;-69
2022/10/17 12:13:53;;;;;;;13.23;6.10;;;18.20;88.90;;;;;;9178534;19;20015;-66
2022/10/17 12:16:59;;;;;;;9.90;6.28;;;18.30;89.00;;;;;;9180071;19;20017;-69
2022/10/17 12:20:25;;;;;;;9.10;6.43;;;18.20;89.00;;;;;;9179885;19;20475;-68
2022/10/17 12:23:29;;;;;;;8.88;6.00;;;18.20;89.20;;;;;;9180790;19;20086;-68
2022/10/17 12:26:33;;;;;;;16.08;6.53;;;18.30;89.10;;;;;;9180586;19;20106;-68
2022/10/17 12:29:37;;;;;;;17.52;6.47;;;18.30;89.20;;;;;;9179110;19;20022;-69
2022/10/17 12:33:03;;;;;;;12.93;7.00;;;18.30;89.20;;;;;;9181830;19;20085;-68
2022/10/17 12:36:43;;;;;;;8.13;6.13;;;18.30;89.40;;;;;;9178967;19;20022;-67
2022/10/17 12:39:46;;;;;;;13.18;6.82;;;18.30;89.50;;;;;;9178461;19;20049;-69
2022/10/17 12:42:51;;;;;;;12.18;6.80;;;18.30;89.30;;;;;;9171622;19;20022;-70
2022/10/17 12:45:55;;;;;;;9.45;6.53;;;18.30;89.40;;;;;;9164571;19;20025;-70
2022/10/17 12:49:23;;;;;;;14.93;6.75;;;18.40;89.40;;;;;;9167576;19;20078;-68
2022/10/17 12:52:48;;;;;;;11.52;6.15;;;18.40;89.40;;;;;;9163842;19;20055;-67
2022/10/17 12:56:00;;;;;;;9.43;5.68;;;18.40;89.40;;;;;;9167957;19;20025;-69
2022/10/17 12:59:10;;;;;;;11.25;6.97;;;18.40;89.40;;;;;;9168851;19;20119;-69
2022/10/17 13:02:20;;;;;;;12.35;6.40;;;18.40;89.40;;;;;;9166592;19;20022;-69
2022/10/17 13:05:29;;;;;;;9.90;6.45;;;18.40;89.40;;;;;;9161093;19;20039;-69
2022/10/17 13:08:36;;;;;;;10.57;6.25;;;18.40;89.40;;;;;;9165380;19;20018;-68
2022/10/17 13:11:44;;;;;;;10.35;6.35;;;18.40;89.40;;;;;;9161629;19;20019;-69
2022/10/17 13:14:49;;;;;;;13.20;7.55;;;18.50;89.50;;;;;;9166893;19;20816;-69
2022/10/17 13:18:00;;;;;;;10.07;6.90;;;18.50;90.00;;;;;;9162930;19;20642;-69
2022/10/17 13:21:06;;;;;;;11.07;6.80;;;18.50;89.50;;;;;;9160950;19;20368;-70
2022/10/17 13:24:22;;;;;;;9.90;6.63;;;18.50;89.50;;;;;;9162596;19;20483;-68
2022/10/17 13:27:31;;;;;;;11.43;6.40;;;18.50;89.60;;;;;;9161525;19;20014;-69
2022/10/17 13:30:36;;;;;;;10.15;7.05;;;18.50;89.50;;;;;;9164414;19;20027;-71
2022/10/17 13:33:42;;;;;;;10.05;6.82;;;18.50;89.50;;;;;;9163989;19;20429;-68
2022/10/17 13:36:48;;;;;;;12.05;7.05;;;18.50;89.50;;;;;;9165272;19;20532;-68
2022/10/17 13:39:52;;;;;;;16.08;7.15;;;18.50;89.60;;;;;;9167061;19;20475;-69
2022/10/17 13:43:03;;;;;;;9.80;7.10;;;18.50;89.70;;;;;;9169278;19;20014;-69
2022/10/17 13:46:08;;;;;;;8.77;6.32;;;18.50;89.70;;;;;;9163724;19;20479;-68
2022/10/17 13:49:34;;;;;;;12.18;7.35;;;18.50;89.70;;;;;;9163165;19;20014;-69
2022/10/17 13:52:38;;;;;;;10.73;6.70;;;18.50;89.70;;;;;;9164547;19;20086;-68
2022/10/17 13:55:52;;;;;;;14.88;8.18;;;18.50;89.80;;;;;;9166960;19;20011;-68
2022/10/17 13:59:24;;;;;;;8.23;6.20;;;18.50;89.90;;;;;;9167363;19;20018;-69
2022/10/17 14:02:29;;;;;;;11.90;6.55;;;18.60;90.00;;;;;;9164875;19;20097;-68
2022/10/17 14:05:34;;;;;;;8.32;6.05;;;18.50;89.80;;;;;;9164150;19;20025;-68
2022/10/17 14:08:40;;;;;;;11.68;6.20;;;18.50;89.90;;;;;;9167165;19;20082;-68
2022/10/17 14:11:45;;;;;;;9.45;6.90;;;18.60;90.00;;;;;;9164095;19;20082;-70
2022/10/17 14:14:54;;;;;;;11.05;6.70;;;18.60;89.90;;;;;;9166667;19;20765;-67
2022/10/17 14:18:20;;;;;;;9.95;6.13;;;18.60;90.00;;;;;;9171950;19;20010;-68
2022/10/17 14:21:27;;;;;;;14.48;7.20;;;18.60;90.00;;;;;;9170663;19;20022;-67
2022/10/17 14:24:47;;;;;;;10.07;6.75;;;18.60;90.00;;;;;;9173907;19;20502;-69
2022/10/17 14:28:01;;;;;;;;;;;18.60;89.90;;;;;;9178928;19;20021;-68
2022/10/17 14:31:20;;;;;;;11.30;5.93;;;18.60;89.80;;;;;;9168973;19;19957;-64
2022/10/17 14:34:32;;;;;;;20.58;6.45;;;18.60;89.80;;;;;;9175095;19;20018;-64
2022/10/17 14:37:42;;;;;;;8.45;6.25;;;18.60;89.80;;;;;;9174831;19;20083;-65
2022/10/17 14:40:51;;;;;;;12.73;7.10;;;18.60;89.80;;;;;;9173717;19;20047;-65
2022/10/17 14:43:58;;;;;;;13.15;6.63;;;18.60;89.80;;;;;;9174602;19;20086;-65
2022/10/17 14:47:05;;;;;;;12.50;6.75;;;18.60;89.80;;;;;;9175827;19;20116;-66
2022/10/17 14:50:30;;;;;;;11.40;7.25;;;18.60;89.90;;;;;;9173137;19;20022;-64
2022/10/17 14:53:34;;;;;;;10.18;6.90;;;18.60;89.90;;;;;;9173456;19;20011;-65
2022/10/17 14:56:43;;;;;;;11.18;6.80;;;18.50;89.80;;;;;;9174078;19;20138;-65
2022/10/17 14:59:46;;;;;;;11.38;6.63;;;18.60;89.90;;;;;;9171261;19;20066;-65
2022/10/17 15:03:01;;;;;;;9.25;6.18;;;18.50;89.90;;;;;;9175096;19;20092;-65
2022/10/17 15:06:18;;;;;;;8.32;5.93;;;18.50;89.90;;;;;;9172417;19;20010;-64
2022/10/17 15:09:22;;;;;;;12.38;6.45;;;18.50;90.00;;;;;;9173403;19;20019;-65
2022/10/17 15:12:26;;;;;;;10.35;6.70;;;18.50;89.90;;;;;;9165387;19;20023;-65
2022/10/17 15:15:32;;;;;;;11.15;6.60;;;18.50;90.00;;;;;;9171948;19;20027;-65
2022/10/17 15:18:38;;;;;;;15.00;7.03;;;18.50;90.00;;;;;;9171419;19;20036;-65
2022/10/17 15:21:41;;;;;;;12.77;6.50;;;18.50;90.00;;;;;;9168276;19;20134;-66
2022/10/17 15:24:50;;;;;;;9.77;6.75;;;18.50;90.00;;;;;;9180353;19;20026;-64
2022/10/17 15:27:54;;;;;;;12.85;7.10;;;18.50;90.00;;;;;;9184102;19;20010;-66
2022/10/17 15:30:58;;;;;;;10.95;6.70;;;18.50;90.00;;;;;;9183317;19;20021;-67
2022/10/17 15:34:03;;;;;;;10.32;6.65;;;18.50;90.00;;;;;;9183475;19;20099;-64
2022/10/17 15:37:15;;;;;;;7.55;5.82;;;18.50;90.00;;;;;;9183664;19;20010;-66
2022/10/17 15:40:22;;;;;;;7.18;4.72;;;18.50;90.00;;;;;;9180978;19;20015;-66
2022/10/17 15:43:28;;;;;;;6.93;4.85;;;18.50;90.00;;;;;;9181704;19;20055;-66
2022/10/17 15:46:35;;;;;;;7.22;4.40;;;18.50;89.90;;;;;;9181295;19;20343;-64
2022/10/17 15:49:40;;;;;;;10.80;5.05;;;18.50;89.90;;;;;;9179175;19;20052;-66
2022/10/17 15:52:45;;;;;;;9.13;5.00;;;18.50;89.80;;;;;;9171553;19;20015;-64
2022/10/17 15:55:49;;;;;;;5.93;4.57;;;18.50;89.80;;;;;;9176400;19;20392;-65
2022/10/17 15:58:54;;;;;;;6.72;4.47;;;18.50;89.80;;;;;;9175350;19;20370;-64
2022/10/17 16:01:58;;;;;;;9.93;4.93;;;18.50;89.80;;;;;;9172697;19;20050;-66
2022/10/17 16:05:03;;;;;;;7.43;5.15;;;18.50;89.70;;;;;;9173061;19;20032;-65
2022/10/17 16:08:07;;;;;;;8.80;5.03;;;18.50;89.70;;;;;;9177123;19;20102;-64
2022/10/17 16:11:17;;;;;;;8.00;5.82;;;18.50;89.70;;;;;;9173342;19;20010;-65
2022/10/17 16:14:21;;;;;;;12.23;6.38;;;18.40;89.60;;;;;;9174335;19;20019;-65
2022/10/17 16:17:24;;;;;;;11.60;6.30;;;18.40;89.70;;;;;;9176466;19;20016;-65